Terminal Aerodrome Forecast
Issued by NWS

Home | Current Version | Previous Version | Text Only | Print | Product List | Glossary On
Versions: 1 2 3 4 5 6 7 8 9 10 11 12 13 14 15 16 17 18 19 20 21 22 23
000
FTPA31 PHFO 241100
TAFOGG
TAF
PHOG 241129Z 2412/2512 05015G23KT P6SM FEW030 SCT045
     FM241400 05012KT P6SM FEW030 SCT040
     FM241900 06020G30KT P6SM FEW030 SCT050
     FM250500 05015G23KT P6SM FEW030 SCT045
      AMD LTD TO WX VIS AND WIND TIL 241600=

USA.gov is the U.S. government's official web portal to all federal, state and local government web resources and services.